Time;durP1;ratioP1;P1;durP2;ratioP2;P2;SDS_P1;SDS_P2;PMS_P1;PMS_P2;Temp;Humidity;BMP_temperature;BMP_pressure;BME280_temperature;BME280_humidity;BME280_pressure;Samples;Min_cycle;Max_cycle;Signal;HPM_P1;HPM_P2
2020/12/14 00:02:12;;;;;;;2.28;1.20;;;9.70;79.20;;;;;;5093951;28;20040;-75
2020/12/14 00:04:39;;;;;;;9.98;3.38;;;9.70;79.30;;;;;;5094350;28;20502;-75
2020/12/14 00:07:05;;;;;;;6.78;2.42;;;9.70;79.10;;;;;;5094647;28;20024;-75
2020/12/14 00:09:31;;;;;;;5.72;2.60;;;9.70;79.40;;;;;;5093717;28;20463;-75
2020/12/14 00:12:00;;;;;;;5.20;1.92;;;9.80;79.70;;;;;;5094212;28;20479;-76
2020/12/14 00:14:26;;;;;;;13.98;3.40;;;9.70;79.50;;;;;;5094437;28;20023;-75
2020/12/14 00:16:52;;;;;;;3.05;1.60;;;9.70;79.30;;;;;;5093695;28;20492;-75
2020/12/14 00:19:17;;;;;;;6.60;2.58;;;9.80;79.30;;;;;;5094397;28;20032;-76
2020/12/14 00:21:43;;;;;;;11.25;2.78;;;9.70;79.50;;;;;;5093379;28;20085;-76
2020/12/14 00:24:08;;;;;;;8.32;2.38;;;9.70;79.60;;;;;;5093367;28;20028;-75
2020/12/14 00:26:34;;;;;;;10.70;2.42;;;9.80;79.70;;;;;;5094069;28;20055;-75
2020/12/14 00:29:00;;;;;;;6.88;2.88;;;9.80;79.60;;;;;;5094224;28;20028;-75
2020/12/14 00:31:25;;;;;;;8.52;2.78;;;9.70;79.50;;;;;;5093601;28;20459;-75
2020/12/14 00:33:51;;;;;;;5.43;2.25;;;9.70;79.50;;;;;;5094105;28;20170;-75
2020/12/14 00:36:16;;;;;;;6.35;2.58;;;9.70;79.60;;;;;;5093647;28;20028;-76
2020/12/14 00:38:42;;;;;;;5.18;2.60;;;9.80;79.50;;;;;;5093766;28;20467;-75
2020/12/14 00:41:15;;;;;;;6.10;1.92;;;9.70;79.30;;;;;;5093899;28;20530;-75
2020/12/14 00:43:42;;;;;;;4.07;2.20;;;9.80;79.40;;;;;;5093321;28;20039;-74
2020/12/14 00:46:14;;;;;;;2.40;1.38;;;9.80;79.30;;;;;;5094000;28;20036;-75
2020/12/14 00:48:40;;;;;;;5.70;1.67;;;9.80;79.60;;;;;;5093901;28;20028;-74
2020/12/14 00:51:06;;;;;;;4.75;2.30;;;9.80;79.40;;;;;;5093080;28;20032;-75
2020/12/14 00:53:33;;;;;;;3.13;1.42;;;9.80;79.20;;;;;;5093767;28;20035;-75
2020/12/14 00:56:03;;;;;;;10.73;3.30;;;9.70;79.30;;;;;;5093849;28;20077;-75
2020/12/14 00:58:28;;;;;;;7.68;2.30;;;9.80;79.20;;;;;;5093239;28;20032;-74
2020/12/14 01:00:54;;;;;;;7.55;1.88;;;9.80;79.50;;;;;;5093636;28;20070;-75
2020/12/14 01:03:20;;;;;;;3.17;1.65;;;9.70;79.40;;;;;;5093491;28;20058;-75
2020/12/14 01:05:45;;;;;;;5.50;2.13;;;9.80;80.30;;;;;;5092738;28;20024;-75
2020/12/14 01:08:11;;;;;;;7.07;3.25;;;9.80;79.60;;;;;;5093662;28;20036;-74
2020/12/14 01:10:36;;;;;;;6.63;2.70;;;9.80;79.50;;;;;;5093662;28;20028;-74
2020/12/14 01:13:02;;;;;;;9.55;2.55;;;9.80;79.40;;;;;;5092694;28;20356;-74
2020/12/14 01:15:28;;;;;;;6.57;2.38;;;9.80;79.40;;;;;;5093571;28;20035;-74
2020/12/14 01:17:53;;;;;;;9.05;1.85;;;9.70;79.40;;;;;;5093625;28;20073;-75
2020/12/14 01:20:19;;;;;;;6.25;2.40;;;9.80;79.50;;;;;;5092791;28;20551;-74
2020/12/14 01:22:45;;;;;;;7.32;2.72;;;9.80;79.30;;;;;;5093010;28;20036;-74
2020/12/14 01:25:10;;;;;;;6.28;2.42;;;9.80;79.20;;;;;;5093369;28;20368;-74
2020/12/14 01:27:36;;;;;;;6.63;3.60;;;9.80;79.40;;;;;;5092374;28;20032;-74
2020/12/14 01:30:02;;;;;;;6.68;2.67;;;9.80;79.20;;;;;;5093507;28;20085;-74
2020/12/14 01:32:28;;;;;;;7.18;2.60;;;9.80;79.20;;;;;;5093391;28;20043;-75
2020/12/14 01:34:54;;;;;;;4.63;1.73;;;9.80;79.20;;;;;;5095445;28;20036;-75
2020/12/14 01:37:19;;;;;;;10.80;2.78;;;9.70;79.40;;;;;;5097372;28;20024;-75
2020/12/14 01:39:45;;;;;;;4.07;2.20;;;9.80;79.50;;;;;;5096729;28;20077;-75
2020/12/14 01:42:10;;;;;;;11.68;2.67;;;9.80;79.30;;;;;;5097339;28;20032;-76
2020/12/14 01:44:36;;;;;;;6.13;1.45;;;9.70;79.30;;;;;;5097310;28;20399;-75
2020/12/14 01:47:05;;;;;;;7.28;2.22;;;9.80;79.50;;;;;;5096752;28;20032;-75
2020/12/14 01:49:31;;;;;;;7.60;1.65;;;9.80;79.50;;;;;;5097332;28;20077;-75
2020/12/14 01:51:57;;;;;;;5.40;2.00;;;9.80;79.60;;;;;;5096904;28;20494;-75
2020/12/14 01:54:28;;;;;;;3.20;1.50;;;9.80;79.50;;;;;;5096544;28;20032;-74
2020/12/14 01:56:55;;;;;;;7.13;2.35;;;9.70;79.60;;;;;;5097181;28;20028;-73
2020/12/14 01:59:22;;;;;;;5.07;2.08;;;9.80;79.60;;;;;;5097113;28;20432;-74
2020/12/14 02:01:50;;;;;;;3.28;1.50;;;9.70;79.60;;;;;;5096000;28;20040;-73
2020/12/14 02:04:17;;;;;;;3.85;1.55;;;9.80;79.90;;;;;;5097036;28;20024;-74
2020/12/14 02:06:42;;;;;;;2.80;1.30;;;9.70;79.90;;;;;;5096810;28;20035;-74
2020/12/14 02:09:08;;;;;;;6.30;2.20;;;9.80;80.00;;;;;;5096230;28;20086;-74
2020/12/14 02:11:34;;;;;;;4.40;2.15;;;9.80;80.00;;;;;;5097129;28;20412;-74
2020/12/14 02:13:59;;;;;;;7.07;2.00;;;9.80;79.90;;;;;;5096682;28;20056;-74
2020/12/14 02:16:25;;;;;;;3.38;1.67;;;9.80;80.00;;;;;;5096160;28;20043;-74
2020/12/14 02:18:51;;;;;;;5.55;2.13;;;9.80;79.90;;;;;;5096729;28;20111;-73
2020/12/14 02:21:16;;;;;;;7.32;3.20;;;9.80;79.80;;;;;;5096149;28;20054;-73
2020/12/14 02:23:43;;;;;;;6.45;2.00;;;9.80;79.80;;;;;;5095969;28;20089;-74
2020/12/14 02:26:09;;;;;;;8.95;2.47;;;9.70;79.90;;;;;;5096592;28;20027;-73
2020/12/14 02:28:35;;;;;;;10.82;2.58;;;9.80;80.00;;;;;;5096514;28;20434;-74
2020/12/14 02:31:00;;;;;;;2.00;1.08;;;9.70;79.90;;;;;;5095700;28;20070;-74
2020/12/14 02:33:26;;;;;;;3.65;2.33;;;9.70;80.00;;;;;;5096412;28;20040;-74
2020/12/14 02:35:52;;;;;;;9.23;3.45;;;9.80;80.10;;;;;;5095880;28;20036;-73
2020/12/14 02:38:17;;;;;;;5.95;2.80;;;9.80;80.00;;;;;;5096224;28;20059;-74
2020/12/14 02:40:43;;;;;;;7.03;2.60;;;9.70;80.00;;;;;;5096232;28;20384;-74
2020/12/14 02:43:08;;;;;;;13.15;3.42;;;9.70;79.90;;;;;;5095565;28;20543;-73
2020/12/14 02:45:36;;;;;;;6.78;2.83;;;9.70;79.90;;;;;;5095780;28;20027;-74
2020/12/14 02:48:03;;;;;;;7.35;3.42;;;9.70;79.80;;;;;;5096127;28;20111;-74
2020/12/14 02:50:29;;;;;;;8.27;2.45;;;9.70;79.80;;;;;;5095414;28;20035;-74
2020/12/14 02:52:55;;;;;;;5.80;2.83;;;9.70;79.60;;;;;;5095853;28;20479;-74
2020/12/14 02:55:21;;;;;;;7.72;2.55;;;9.60;79.70;;;;;;5095868;28;20024;-73
2020/12/14 02:57:46;;;;;;;6.38;3.10;;;9.60;79.80;;;;;;5095052;28;20046;-74
2020/12/14 03:00:12;;;;;;;4.22;2.22;;;9.60;80.30;;;;;;5095961;28;20034;-74
2020/12/14 03:02:38;;;;;;;5.72;2.35;;;9.60;79.70;;;;;;5095693;28;20032;-74
2020/12/14 03:05:03;;;;;;;6.00;2.03;;;9.60;79.70;;;;;;5095173;28;20077;-73
2020/12/14 03:07:29;;;;;;;7.38;3.10;;;9.60;80.00;;;;;;5095919;28;20131;-74
2020/12/14 03:09:55;;;;;;;6.78;2.03;;;9.60;80.00;;;;;;5095592;28;20028;-74
2020/12/14 03:12:20;;;;;;;8.43;2.15;;;9.70;80.30;;;;;;5095212;28;20114;-74
2020/12/14 03:14:46;;;;;;;8.50;3.20;;;9.70;80.30;;;;;;5095696;28;20077;-74
2020/12/14 03:17:11;;;;;;;7.03;2.30;;;9.70;80.10;;;;;;5095399;28;20471;-74
2020/12/14 03:19:37;;;;;;;6.22;1.83;;;9.70;80.10;;;;;;5094959;28;20488;-74
2020/12/14 03:22:03;;;;;;;9.45;3.13;;;9.70;80.30;;;;;;5095359;28;20055;-73
2020/12/14 03:24:28;;;;;;;9.10;2.53;;;9.60;80.00;;;;;;5095445;28;20020;-73
2020/12/14 03:26:54;;;;;;;8.30;3.00;;;9.70;80.10;;;;;;5094356;28;20464;-74
2020/12/14 03:29:20;;;;;;;7.20;3.03;;;9.70;80.00;;;;;;5095158;28;20028;-74
2020/12/14 03:31:45;;;;;;;7.88;3.45;;;9.70;80.00;;;;;;5095159;28;20024;-76
2020/12/14 03:34:11;;;;;;;1.73;1.13;;;9.70;79.80;;;;;;5094296;28;20498;-73
2020/12/14 03:36:37;;;;;;;2.70;1.48;;;9.70;79.90;;;;;;5095262;28;20016;-73
2020/12/14 03:39:03;;;;;;;9.15;2.65;;;9.80;80.10;;;;;;5095135;28;20471;-74
2020/12/14 03:41:29;;;;;;;7.18;2.35;;;9.80;80.00;;;;;;5094291;28;20032;-73
2020/12/14 03:43:54;;;;;;;11.88;3.60;;;9.80;80.00;;;;;;5094849;28;20048;-73
2020/12/14 03:46:23;;;;;;;8.27;2.58;;;9.80;80.40;;;;;;5094219;28;20107;-73
2020/12/14 03:48:53;;;;;;;6.35;2.13;;;9.80;79.80;;;;;;5094905;28;20349;-73
2020/12/14 03:51:19;;;;;;;6.35;2.20;;;9.80;79.80;;;;;;5094947;28;20085;-73
2020/12/14 03:53:45;;;;;;;9.57;3.00;;;9.80;79.70;;;;;;5092869;28;20024;-73
2020/12/14 03:56:11;;;;;;;9.57;2.55;;;9.80;79.60;;;;;;5094180;28;20036;-73
2020/12/14 03:58:36;;;;;;;7.70;2.63;;;9.80;79.70;;;;;;5094578;28;20114;-73
2020/12/14 04:01:03;;;;;;;5.75;2.35;;;9.80;79.70;;;;;;5093964;28;20024;-73
2020/12/14 04:03:29;;;;;;;9.68;2.63;;;9.80;79.70;;;;;;5094556;28;20044;-74
2020/12/14 04:05:54;;;;;;;7.75;4.13;;;9.90;79.60;;;;;;5094706;28;20028;-73
2020/12/14 04:08:20;;;;;;;5.75;2.53;;;9.90;79.60;;;;;;5093792;28;20395;-73
2020/12/14 04:10:46;;;;;;;11.05;2.97;;;9.90;79.70;;;;;;5094399;28;20383;-73
2020/12/14 04:13:11;;;;;;;4.20;2.00;;;9.90;79.40;;;;;;5094472;28;20085;-73
2020/12/14 04:15:37;;;;;;;6.57;2.42;;;9.90;79.50;;;;;;5093746;28;20121;-73
2020/12/14 04:18:03;;;;;;;13.43;3.30;;;9.90;79.50;;;;;;5094511;28;20473;-73
2020/12/14 04:20:29;;;;;;;7.20;2.35;;;9.90;79.50;;;;;;5094377;28;20020;-73
2020/12/14 04:22:55;;;;;;;13.65;2.78;;;9.80;79.60;;;;;;5093258;28;20048;-73
2020/12/14 04:25:21;;;;;;;9.57;2.30;;;9.80;79.60;;;;;;5094340;28;20387;-73
2020/12/14 04:27:46;;;;;;;7.05;2.60;;;9.80;79.60;;;;;;5094205;28;20020;-73
2020/12/14 04:30:12;;;;;;;3.05;1.98;;;9.80;79.50;;;;;;5093288;28;20027;-73
2020/12/14 04:32:39;;;;;;;7.82;2.95;;;9.80;79.50;;;;;;5093913;28;20426;-73
2020/12/14 04:35:06;;;;;;;8.20;2.88;;;9.90;79.60;;;;;;5094261;28;20066;-73
2020/12/14 04:37:31;;;;;;;3.80;1.80;;;9.90;79.60;;;;;;5093414;28;20032;-74
2020/12/14 04:39:57;;;;;;;5.75;2.55;;;9.90;79.70;;;;;;5093978;28;20112;-73
2020/12/14 04:42:23;;;;;;;7.93;2.53;;;9.80;79.60;;;;;;5093812;28;20036;-73
2020/12/14 04:44:53;;;;;;;7.38;2.13;;;9.90;79.60;;;;;;5093015;28;20028;-73
2020/12/14 04:47:19;;;;;;;6.53;2.65;;;9.90;79.60;;;;;;5093711;28;20077;-73
2020/12/14 04:49:47;;;;;;;6.85;2.58;;;9.90;79.60;;;;;;5093281;28;20077;-73
2020/12/14 04:52:13;;;;;;;5.30;2.15;;;9.80;79.40;;;;;;5093970;28;20028;-73
2020/12/14 04:54:40;;;;;;;6.97;1.42;;;9.90;79.50;;;;;;5093892;28;20119;-73
2020/12/14 04:57:10;;;;;;;4.85;2.25;;;9.90;79.40;;;;;;5093138;28;20474;-73
2020/12/14 04:59:36;;;;;;;4.88;1.92;;;9.90;79.40;;;;;;5093759;28;20383;-73
2020/12/14 05:02:10;;;;;;;2.17;1.60;;;9.90;79.50;;;;;;5093754;28;20040;-73
2020/12/14 05:04:39;;;;;;;4.97;1.48;;;9.90;79.50;;;;;;5092975;28;20035;-73
2020/12/14 05:07:06;;;;;;;4.28;2.08;;;9.90;79.50;;;;;;5093822;28;20068;-73
2020/12/14 05:09:32;;;;;;;4.82;2.20;;;9.90;79.60;;;;;;5093546;28;20020;-72
2020/12/14 05:11:58;;;;;;;8.45;2.70;;;9.90;79.70;;;;;;5092684;28;20120;-72
2020/12/14 05:14:26;;;;;;;5.38;2.35;;;9.90;79.60;;;;;;5093347;28;20402;-72
2020/12/14 05:16:53;;;;;;;7.10;2.53;;;9.90;79.60;;;;;;5093369;28;20513;-73
2020/12/14 05:19:23;;;;;;;5.28;2.08;;;9.90;79.50;;;;;;5093017;28;20073;-72
2020/12/14 05:21:59;;;;;;;7.65;2.10;;;9.90;79.60;;;;;;5093223;28;20048;-73
2020/12/14 05:24:29;;;;;;;4.18;1.63;;;9.90;79.50;;;;;;5093390;28;20058;-73
2020/12/14 05:26:56;;;;;;;3.25;1.60;;;9.80;79.40;;;;;;5092627;28;20463;-73
2020/12/14 05:29:27;;;;;;;4.35;1.73;;;9.90;79.40;;;;;;5093574;28;20024;-73
2020/12/14 05:32:11;;;;;;;6.50;2.95;;;9.90;79.40;;;;;;5092713;28;20091;-73
2020/12/14 05:34:43;;;;;;;3.67;1.80;;;9.80;79.50;;;;;;5093559;28;20109;-73
2020/12/14 05:37:11;;;;;;;9.03;2.13;;;9.80;79.50;;;;;;5093204;28;20031;-73
2020/12/14 05:39:39;;;;;;;9.18;2.67;;;9.80;79.50;;;;;;5092705;28;20081;-73
2020/12/14 05:42:13;;;;;;;3.85;1.42;;;9.90;79.50;;;;;;5093282;28;20131;-77
2020/12/14 05:44:40;;;;;;;1.85;1.35;;;9.90;79.60;;;;;;5093215;28;20032;-75
2020/12/14 05:47:31;;;;;;;2.88;1.55;;;9.90;79.60;;;;;;5092430;28;20032;-75
2020/12/14 05:49:58;;;;;;;7.10;2.15;;;9.90;79.70;;;;;;5093186;28;20077;-79
2020/12/14 05:52:32;;;;;;;2.08;1.35;;;9.90;79.60;;;;;;5093325;28;20433;-79
2020/12/14 05:54:58;;;;;;;5.88;1.88;;;9.90;79.60;;;;;;5092655;28;20035;-78
2020/12/14 05:57:28;;;;;;;9.23;3.15;;;9.90;79.60;;;;;;5093189;28;20032;-81
2020/12/14 06:00:00;;;;;;;4.22;1.55;;;9.80;79.50;;;;;;5092197;28;20499;-77
2020/12/14 06:02:27;;;;;;;6.05;2.40;;;9.90;79.60;;;;;;5093219;28;20075;-78
2020/12/14 06:04:57;;;;;;;1.42;0.90;;;9.80;79.60;;;;;;5093157;28;20020;-76
2020/12/14 06:07:29;;;;;;;4.50;2.10;;;9.90;79.70;;;;;;5092210;28;20035;-77
2020/12/14 06:10:08;;;;;;;3.67;1.70;;;9.80;79.60;;;;;;5092848;28;20035;-78
2020/12/14 06:12:36;;;;;;;3.58;2.08;;;9.90;79.70;;;;;;5092890;28;20118;-75
2020/12/14 06:15:06;;;;;;;6.88;3.20;;;9.90;79.60;;;;;;5092377;28;20437;-72
2020/12/14 06:17:33;;;;;;;5.45;1.52;;;9.90;79.80;;;;;;5093041;28;20032;-77
2020/12/14 06:20:08;;;;;;;7.30;3.10;;;10.00;79.70;;;;;;5094126;28;20036;-79
2020/12/14 06:22:35;;;;;;;6.70;1.67;;;9.90;79.80;;;;;;5095726;28;20100;-80
2020/12/14 06:25:02;;;;;;;7.53;3.03;;;9.90;79.60;;;;;;5096765;28;20047;-70
2020/12/14 06:27:29;;;;;;;1.98;0.88;;;10.00;79.70;;;;;;5096063;28;20055;-67
2020/12/14 06:29:55;;;;;;;6.47;2.15;;;10.00;79.60;;;;;;5095557;28;20024;-72
2020/12/14 06:32:41;;;;;;;3.17;2.13;;;9.90;79.60;;;;;;5094799;28;20035;-70
2020/12/14 06:35:14;;;;;;;0.90;0.60;;;9.90;79.60;;;;;;5093919;28;20051;-70
2020/12/14 06:37:52;;;;;;;11.68;2.95;;;9.90;79.60;;;;;;5094839;28;20035;-70
2020/12/14 06:40:18;;;;;;;5.03;1.75;;;9.90;79.70;;;;;;5093634;28;20032;-71
2020/12/14 06:42:44;;;;;;;7.22;2.70;;;9.90;79.60;;;;;;5095313;28;20473;-73
2020/12/14 06:45:15;;;;;;;4.90;2.83;;;9.90;79.60;;;;;;5096351;28;20032;-69
2020/12/14 06:47:45;;;;;;;5.85;2.90;;;9.90;79.80;;;;;;5095479;28;20089;-71
2020/12/14 06:50:27;;;;;;;5.75;2.05;;;9.90;79.90;;;;;;5094105;28;20043;-68
2020/12/14 06:52:53;;;;;;;7.60;3.00;;;9.90;79.80;;;;;;5094720;28;20025;-84
2020/12/14 06:55:45;;;;;;;6.47;2.00;;;9.90;79.80;;;;;;5094652;28;20531;-78
2020/12/14 06:58:32;;;;;;;10.85;3.33;;;9.90;79.90;;;;;;5091382;28;20070;-80
2020/12/14 07:00:58;;;;;;;4.80;2.72;;;10.00;80.00;;;;;;5093236;28;20487;-77
2020/12/14 07:03:35;;;;;;;8.10;3.47;;;10.00;80.00;;;;;;5093569;28;20032;-75
2020/12/14 07:06:03;;;;;;;5.03;2.60;;;10.00;80.50;;;;;;5094158;28;20467;-71
2020/12/14 07:08:39;;;;;;;10.48;4.53;;;10.00;81.40;;;;;;5091770;28;20460;-71
2020/12/14 07:11:13;;;;;;;1.48;1.23;;;10.00;81.00;;;;;;5094088;28;20036;-72
2020/12/14 07:13:39;;;;;;;5.00;2.15;;;9.90;80.50;;;;;;5093812;28;20063;-71
2020/12/14 07:16:06;;;;;;;3.38;2.60;;;9.90;80.30;;;;;;5094125;28;20535;-72
2020/12/14 07:18:33;;;;;;;5.75;2.80;;;9.90;80.50;;;;;;5093176;28;20383;-72
2020/12/14 07:21:06;;;;;;;4.55;2.50;;;9.90;80.60;;;;;;5093809;28;20043;-72
2020/12/14 07:23:34;;;;;;;2.67;1.70;;;9.90;80.70;;;;;;5093692;28;20036;-72
2020/12/14 07:26:01;;;;;;;3.42;1.77;;;9.90;80.50;;;;;;5093367;28;20020;-72
2020/12/14 07:29:07;;;;;;;5.18;1.95;;;9.90;80.50;;;;;;5093790;28;20106;-73
2020/12/14 07:31:33;;;;;;;6.28;3.00;;;9.90;80.50;;;;;;5090575;28;20059;-74
2020/12/14 07:33:59;;;;;;;5.50;2.75;;;9.90;80.50;;;;;;5094621;28;20035;-71
2020/12/14 07:36:26;;;;;;;3.95;2.50;;;9.90;80.60;;;;;;5094838;28;20028;-74
2020/12/14 07:38:54;;;;;;;6.95;2.83;;;9.90;80.70;;;;;;5091636;28;20082;-75
2020/12/14 07:41:21;;;;;;;5.65;2.67;;;9.90;80.60;;;;;;5091782;28;20032;-74
2020/12/14 07:43:50;;;;;;;4.60;2.83;;;9.90;80.70;;;;;;5092665;28;20150;-73
2020/12/14 07:46:30;;;;;;;3.83;2.53;;;9.90;80.80;;;;;;5092246;28;20020;-74
2020/12/14 07:48:58;;;;;;;5.40;2.85;;;10.00;80.90;;;;;;5093763;28;20035;-74
2020/12/14 07:51:25;;;;;;;4.22;2.83;;;9.90;80.90;;;;;;5094104;28;20031;-74
2020/12/14 07:53:51;;;;;;;7.22;3.28;;;10.00;80.90;;;;;;5093725;28;20533;-74
2020/12/14 07:56:17;;;;;;;4.28;2.90;;;10.00;81.00;;;;;;5094624;28;20077;-74
2020/12/14 07:58:45;;;;;;;5.75;2.53;;;10.00;81.00;;;;;;5094818;28;20097;-74
2020/12/14 08:01:17;;;;;;;2.50;1.83;;;10.00;81.00;;;;;;5094124;28;20028;-74
2020/12/14 08:03:46;;;;;;;5.10;3.22;;;10.00;80.90;;;;;;5094514;28;20036;-74
2020/12/14 08:06:17;;;;;;;3.50;2.67;;;10.00;80.90;;;;;;5094432;28;20028;-74
2020/12/14 08:08:50;;;;;;;4.60;3.30;;;10.00;81.00;;;;;;5093926;28;20112;-74
2020/12/14 08:11:18;;;;;;;5.97;3.78;;;10.00;81.20;;;;;;5094561;28;20032;-74
2020/12/14 08:13:45;;;;;;;8.15;3.67;;;10.00;81.00;;;;;;5093805;28;20111;-74
2020/12/14 08:16:16;;;;;;;2.03;1.73;;;10.10;81.20;;;;;;5094550;28;20024;-74
2020/12/14 08:18:44;;;;;;;2.05;1.65;;;10.00;81.00;;;;;;5094474;28;20459;-74
2020/12/14 08:21:23;;;;;;;7.25;3.50;;;10.10;80.70;;;;;;5093582;28;20047;-74
2020/12/14 08:23:50;;;;;;;7.38;3.75;;;10.10;81.00;;;;;;5094320;28;20105;-74
2020/12/14 08:26:24;;;;;;;6.28;3.45;;;10.10;81.00;;;;;;5094385;28;20057;-75
2020/12/14 08:28:57;;;;;;;6.25;3.83;;;10.10;80.90;;;;;;5093540;28;20190;-74
2020/12/14 08:31:23;;;;;;;1.70;1.60;;;10.10;81.20;;;;;;5094204;28;20111;-71
2020/12/14 08:33:54;;;;;;;1.95;1.55;;;10.10;80.80;;;;;;5094277;28;20055;-72
2020/12/14 08:36:20;;;;;;;3.65;2.38;;;10.10;80.80;;;;;;5093571;28;20109;-73
2020/12/14 08:38:47;;;;;;;6.07;3.28;;;10.10;80.90;;;;;;5093979;28;20460;-72
2020/12/14 08:41:17;;;;;;;3.92;3.22;;;10.00;81.10;;;;;;5094121;28;20036;-73
2020/12/14 08:43:43;;;;;;;4.15;2.72;;;10.00;81.40;;;;;;5092782;28;20051;-73
2020/12/14 08:46:09;;;;;;;5.20;3.10;;;10.00;81.60;;;;;;5093962;28;20032;-72
2020/12/14 08:48:45;;;;;;;3.20;2.05;;;10.00;81.70;;;;;;5093911;28;20035;-72
2020/12/14 08:51:26;;;;;;;5.55;3.13;;;10.00;81.80;;;;;;5093959;28;20352;-72
2020/12/14 08:53:53;;;;;;;3.78;2.35;;;10.00;82.00;;;;;;5093909;28;20023;-72
2020/12/14 08:56:21;;;;;;;3.53;2.55;;;9.90;82.00;;;;;;5092965;28;20031;-71
2020/12/14 08:58:48;;;;;;;4.20;2.33;;;9.90;82.30;;;;;;5093705;28;20043;-72
2020/12/14 09:01:14;;;;;;;7.32;4.25;;;9.90;82.40;;;;;;5093651;28;20024;-72
2020/12/14 09:03:49;;;;;;;6.63;3.17;;;10.00;82.80;;;;;;5092773;28;20395;-72
2020/12/14 09:06:22;;;;;;;4.15;2.40;;;9.90;82.70;;;;;;5093645;28;20028;-72
2020/12/14 09:09:03;;;;;;;;;;;10.00;82.80;;;;;;5094157;28;20039;-72
2020/12/14 09:11:30;;;;;;;4.38;2.65;;;9.90;82.80;;;;;;5092786;28;19919;-72
2020/12/14 09:13:58;;;;;;;5.65;2.25;;;9.90;83.00;;;;;;5093691;28;20099;-72
2020/12/14 09:16:24;;;;;;;4.82;2.83;;;9.80;83.20;;;;;;5093718;28;20032;-72
2020/12/14 09:18:50;;;;;;;4.63;2.72;;;9.90;83.60;;;;;;5092813;28;20416;-72
2020/12/14 09:21:17;;;;;;;2.95;1.88;;;9.90;83.80;;;;;;5093317;28;20070;-71
2020/12/14 09:23:44;;;;;;;7.93;3.22;;;9.90;84.00;;;;;;5093356;28;20032;-73
2020/12/14 09:26:10;;;;;;;4.90;2.60;;;9.80;84.20;;;;;;5092624;28;20457;-72
2020/12/14 09:28:36;;;;;;;1.75;1.45;;;9.90;84.40;;;;;;5093577;28;20076;-72
2020/12/14 09:31:03;;;;;;;7.68;2.90;;;9.80;84.50;;;;;;5092620;28;20036;-72
2020/12/14 09:33:29;;;;;;;6.30;3.58;;;9.90;84.70;;;;;;5093373;28;20120;-72
2020/12/14 09:35:55;;;;;;;4.75;3.08;;;9.90;84.90;;;;;;5093559;28;20048;-72
2020/12/14 09:38:20;;;;;;;5.57;2.42;;;9.90;84.90;;;;;;5092615;28;20031;-72
2020/12/14 09:40:55;;;;;;;3.88;2.15;;;9.90;85.00;;;;;;5093405;28;20028;-72
2020/12/14 09:43:21;;;;;;;2.67;1.73;;;9.90;85.20;;;;;;5093280;28;20047;-72
2020/12/14 09:45:53;;;;;;;1.98;1.50;;;9.90;85.20;;;;;;5092458;28;20118;-72
2020/12/14 09:48:19;;;;;;;4.47;2.50;;;9.90;85.40;;;;;;5093130;28;20130;-72
2020/12/14 09:50:45;;;;;;;2.15;0.95;;;9.80;85.60;;;;;;5093384;28;20466;-71
2020/12/14 09:53:11;;;;;;;3.40;2.33;;;9.90;85.70;;;;;;5092497;28;20077;-67
2020/12/14 09:55:36;;;;;;;3.65;2.00;;;9.90;85.80;;;;;;5095351;28;20058;-72
2020/12/14 09:58:02;;;;;;;2.83;1.77;;;9.90;86.00;;;;;;5097198;28;20430;-76
2020/12/14 10:00:28;;;;;;;6.38;3.03;;;9.90;86.00;;;;;;5096385;28;20028;-70
2020/12/14 10:02:53;;;;;;;1.55;1.10;;;9.90;86.20;;;;;;5096738;28;20402;-73
2020/12/14 10:05:19;;;;;;;0.80;0.77;;;9.90;86.10;;;;;;5096716;28;20034;-74
2020/12/14 10:07:46;;;;;;;7.22;1.40;;;10.00;86.30;;;;;;5096086;28;20031;-74
2020/12/14 10:10:12;;;;;;;2.08;1.27;;;10.00;86.30;;;;;;5096971;28;20123;-74
2020/12/14 10:12:40;;;;;;;3.05;2.03;;;10.00;86.20;;;;;;5096925;28;20151;-74
2020/12/14 10:15:09;;;;;;;2.72;2.25;;;10.00;86.20;;;;;;5096208;28;20051;-74
2020/12/14 10:17:35;;;;;;;2.53;1.63;;;10.00;86.30;;;;;;5096653;28;20024;-74
2020/12/14 10:20:03;;;;;;;5.82;2.45;;;10.00;86.20;;;;;;5096579;28;20119;-74
2020/12/14 10:22:28;;;;;;;2.67;1.90;;;10.10;86.40;;;;;;5096029;28;20124;-74
2020/12/14 10:24:54;;;;;;;5.45;2.72;;;10.10;86.30;;;;;;5096666;28;20487;-73
2020/12/14 10:27:20;;;;;;;3.35;1.80;;;10.20;86.50;;;;;;5095727;28;20059;-76
2020/12/14 10:29:45;;;;;;;2.40;1.75;;;10.10;86.50;;;;;;5096642;28;20031;-75
2020/12/14 10:32:11;;;;;;;2.95;2.03;;;10.10;86.60;;;;;;5096406;28;20066;-74
2020/12/14 10:34:37;;;;;;;1.15;1.05;;;10.20;86.80;;;;;;5095601;28;20055;-74
2020/12/14 10:37:03;;;;;;;3.10;2.30;;;10.10;86.90;;;;;;5096245;28;20028;-74
2020/12/14 10:39:28;;;;;;;2.70;1.52;;;10.10;87.00;;;;;;5096402;28;20499;-74
2020/12/14 10:41:54;;;;;;;2.33;1.75;;;10.20;87.10;;;;;;5095538;28;20024;-74
2020/12/14 10:44:19;;;;;;;4.93;3.67;;;10.20;87.30;;;;;;5096065;28;20039;-75
2020/12/14 10:46:45;;;;;;;2.08;1.45;;;10.20;87.60;;;;;;5096139;28;20058;-74
2020/12/14 10:49:11;;;;;;;2.38;1.33;;;10.20;87.50;;;;;;5095476;28;20064;-74
2020/12/14 10:51:37;;;;;;;3.30;2.53;;;10.20;87.70;;;;;;5095832;28;20028;-74
2020/12/14 10:54:03;;;;;;;3.97;1.95;;;10.20;87.70;;;;;;5095644;28;20178;-73
2020/12/14 10:56:28;;;;;;;1.95;1.38;;;10.20;87.80;;;;;;5095240;28;20032;-72
2020/12/14 10:58:56;;;;;;;2.85;2.15;;;10.20;87.80;;;;;;5095753;28;20055;-78
2020/12/14 11:01:22;;;;;;;3.33;1.95;;;10.30;87.90;;;;;;5095879;28;20382;-72
2020/12/14 11:03:47;;;;;;;5.45;3.28;;;10.30;88.00;;;;;;5094911;28;20032;-67
2020/12/14 11:06:13;;;;;;;4.57;2.35;;;10.30;88.20;;;;;;5095295;28;20520;-70
2020/12/14 11:08:38;;;;;;;2.63;1.75;;;10.30;88.10;;;;;;5095860;28;20475;-70
2020/12/14 11:11:04;;;;;;;2.75;2.35;;;10.40;88.20;;;;;;5095226;28;20039;-70
2020/12/14 11:13:30;;;;;;;1.85;1.55;;;10.40;88.80;;;;;;5095647;28;20423;-70
2020/12/14 11:15:56;;;;;;;1.98;1.38;;;10.40;88.20;;;;;;5095748;28;20391;-69
2020/12/14 11:18:21;;;;;;;2.10;1.90;;;10.50;88.20;;;;;;5094595;28;20394;-70
2020/12/14 11:20:47;;;;;;;4.28;2.22;;;10.50;88.10;;;;;;5095519;28;20035;-70
2020/12/14 11:23:14;;;;;;;4.10;2.53;;;10.50;88.10;;;;;;5094990;28;20048;-70
2020/12/14 11:25:40;;;;;;;6.80;3.35;;;10.60;88.30;;;;;;5094782;28;20047;-70
2020/12/14 11:28:05;;;;;;;3.30;2.15;;;10.50;88.20;;;;;;5095205;28;20463;-67
2020/12/14 11:30:31;;;;;;;2.05;1.45;;;10.60;88.40;;;;;;5094467;28;20028;-70
2020/12/14 11:32:56;;;;;;;2.00;1.80;;;10.60;88.50;;;;;;5095215;28;20161;-70
2020/12/14 11:35:22;;;;;;;4.47;2.22;;;10.60;88.50;;;;;;5095207;28;20028;-69
2020/12/14 11:37:48;;;;;;;3.85;2.15;;;10.70;88.60;;;;;;5094555;28;20040;-67
2020/12/14 11:40:14;;;;;;;3.50;2.38;;;10.70;88.70;;;;;;5095219;28;20069;-75
2020/12/14 11:42:40;;;;;;;1.40;1.17;;;10.70;88.90;;;;;;5095079;28;20040;-72
2020/12/14 11:45:09;;;;;;;4.22;1.58;;;10.70;89.00;;;;;;5094214;28;20089;-73
2020/12/14 11:47:35;;;;;;;2.35;1.60;;;10.70;89.20;;;;;;5094999;28;20510;-72
2020/12/14 11:50:02;;;;;;;1.70;1.23;;;10.80;89.30;;;;;;5094886;28;20418;-72
2020/12/14 11:52:28;;;;;;;6.22;2.67;;;10.80;89.40;;;;;;5094146;28;20040;-75
2020/12/14 11:54:53;;;;;;;3.13;2.10;;;10.80;89.40;;;;;;5094926;28;20024;-75
2020/12/14 11:57:19;;;;;;;4.22;2.50;;;10.80;89.50;;;;;;5094077;28;20357;-76
2020/12/14 11:59:45;;;;;;;3.65;1.92;;;10.80;89.70;;;;;;5094018;28;20036;-76
2020/12/14 12:02:12;;;;;;;3.20;2.20;;;10.90;89.80;;;;;;5094711;28;20074;-75
2020/12/14 12:04:37;;;;;;;2.67;1.55;;;10.90;90.00;;;;;;5094459;28;20123;-69
2020/12/14 12:07:05;;;;;;;6.00;1.88;;;10.90;90.00;;;;;;5093840;28;20158;-69
2020/12/14 12:09:32;;;;;;;2.40;1.42;;;10.90;90.00;;;;;;5094718;28;20020;-69
2020/12/14 12:11:58;;;;;;;2.83;1.70;;;11.00;90.00;;;;;;5094610;28;20047;-71
2020/12/14 12:14:23;;;;;;;2.47;2.05;;;11.00;90.00;;;;;;5093768;28;20028;-72
2020/12/14 12:16:49;;;;;;;2.00;1.42;;;11.00;90.00;;;;;;5094327;28;20035;-72
2020/12/14 12:19:17;;;;;;;3.15;2.20;;;11.00;90.00;;;;;;5093722;28;20382;-72
2020/12/14 12:21:47;;;;;;;4.45;1.77;;;11.10;90.00;;;;;;5093433;28;20043;-72
2020/12/14 12:24:13;;;;;;;2.15;1.80;;;11.10;90.00;;;;;;5094504;28;20036;-72
2020/12/14 12:26:38;;;;;;;2.80;1.48;;;11.10;90.00;;;;;;5093989;28;20455;-71
2020/12/14 12:29:04;;;;;;;1.10;0.98;;;11.10;90.00;;;;;;5093521;28;20114;-72
2020/12/14 12:31:30;;;;;;;3.28;1.50;;;11.10;90.10;;;;;;5094080;28;20074;-72
2020/12/14 12:33:55;;;;;;;1.63;1.40;;;11.20;90.10;;;;;;5093276;28;20406;-72
2020/12/14 12:36:21;;;;;;;3.95;2.53;;;11.20;90.20;;;;;;5093907;28;20127;-72
2020/12/14 12:38:47;;;;;;;2.38;1.55;;;11.30;90.30;;;;;;5094125;28;20036;-72
2020/12/14 12:41:12;;;;;;;7.28;1.95;;;11.30;90.20;;;;;;5093288;28;20025;-72
2020/12/14 12:43:38;;;;;;;3.53;2.30;;;11.30;90.30;;;;;;5094023;28;20556;-72
2020/12/14 12:46:04;;;;;;;3.67;2.55;;;11.30;90.30;;;;;;5093757;28;20475;-72
2020/12/14 12:48:29;;;;;;;2.17;1.67;;;11.40;90.30;;;;;;5093396;28;20056;-73
2020/12/14 12:50:55;;;;;;;4.60;2.90;;;11.40;90.20;;;;;;5094066;28;20051;-73
2020/12/14 12:53:23;;;;;;;1.88;1.40;;;11.40;90.20;;;;;;5093794;28;20539;-73
2020/12/14 12:55:49;;;;;;;3.15;1.08;;;11.50;90.10;;;;;;5093152;28;20024;-72